KACB

Antrim County Airport

Bellaire, Michigan, USA
METAR KACB 211335Z AUTO 02003KT 7SM BKN090 BKN110 21/20 A2980 RMK AO2 T02120198
Observed Flight Rules
Jul-21 @ 13:35 UTC (18 minutes ago) Visual Flight Rules
Wind Visibility Clouds
20° at 3 knots 7 miles
  • Broken at 9,000' AGL
  • Broken at 11,000' AGL
Temperatures Readings
Current 21°C / 70°F
Dewpoint 20°C / 68°F
Humidity 94%
Altimeter 29.8" Hg
Pressure 1009 hPa
Elevation 190
METAR KACB 211335Z AUTO 02003KT 7SM BKN090 BKN110 21/20 A2980 RMK AO2 T02120198
Observed Flight Rules
Jul-21 @ 13:35 UTC
(18 minutes ago)
VFR
Wind Visibility
20° at 3 knots 7 miles
Clouds
  • Broken at 9,000' AGL
  • Broken at 11,000' AGL
Temperature Dewpoint
21°C / 70°F 20°C / 68°F
Humidity Altimeter Pressure
94% 29.8" Hg 1009 hPa